Time;durP1;ratioP1;P1;durP2;ratioP2;P2;SDS_P1;SDS_P2;PMS_P1;PMS_P2;Temp;Humidity;BMP_temperature;BMP_pressure;BME280_temperature;BME280_humidity;BME280_pressure;Samples;Min_cycle;Max_cycle;Signal;HPM_P1;HPM_P2
2022/05/22 00:01:02;;;;;;;8.65;4.18;;;;;;;21.60;50.54;94713.31;4975174;28;20032;-77
2022/05/22 00:03:27;;;;;;;12.20;4.45;;;;;;;21.57;50.67;94712.84;4975450;28;20042;-77
2022/05/22 00:05:53;;;;;;;6.60;4.28;;;;;;;21.54;50.45;94708.16;4992882;28;20046;-77
2022/05/22 00:08:19;;;;;;;7.70;4.40;;;;;;;21.52;50.40;94713.00;4975406;28;20037;-77
2022/05/22 00:10:45;;;;;;;9.02;4.75;;;;;;;21.52;50.55;94709.56;4992752;28;20117;-77
2022/05/22 00:13:10;;;;;;;8.38;5.90;;;;;;;21.50;50.65;94712.50;4976003;28;20101;-76
2022/05/22 00:16:35;;;;;;;11.23;6.55;;;;;;;21.47;50.78;94710.44;5004068;28;20030;-76
2022/05/22 00:18:21;;;;;;;15.98;5.95;;;;;;;21.44;50.93;94708.41;4995546;28;20469;-76
2022/05/22 00:20:46;;;;;;;10.57;5.68;;;;;;;21.40;50.79;94699.53;4993825;28;20491;-77
2022/05/22 00:23:12;;;;;;;13.93;6.25;;;;;;;21.41;50.77;94701.09;4975704;28;20034;-77
2022/05/22 00:25:37;;;;;;;11.32;5.45;;;;;;;21.41;50.71;94701.09;4993588;28;20049;-77
2022/05/22 00:28:03;;;;;;;8.27;4.78;;;;;;;21.40;50.75;94694.22;4993332;28;20037;-77
2022/05/22 00:30:28;;;;;;;12.15;4.43;;;;;;;21.40;50.76;94696.88;4991255;28;20034;-77
2022/05/22 00:32:54;;;;;;;7.32;4.20;;;;;;;21.41;50.90;94697.66;4943007;28;20402;-76
2022/05/22 00:35:19;;;;;;;9.50;4.35;;;;;;;21.40;50.95;94696.88;4975190;28;20538;-77
2022/05/22 00:37:45;;;;;;;10.43;4.75;;;;;;;21.40;50.93;94691.59;4975276;28;20030;-77
2022/05/22 00:40:11;;;;;;;7.93;4.45;;;;;;;21.41;50.93;94693.16;4974928;28;20692;-77
2022/05/22 00:42:36;;;;;;;18.05;4.40;;;;;;;21.40;51.02;94698.75;4975164;28;20034;-77
2022/05/22 00:45:02;;;;;;;5.80;4.15;;;;;;;21.37;50.88;94702.78;4992123;28;20037;-77
2022/05/22 00:47:27;;;;;;;10.20;4.05;;;;;;;21.32;51.03;94694.97;4974556;28;20510;-77
2022/05/22 00:49:55;;;;;;;18.38;4.60;;;;;;;21.30;51.24;94691.81;4991891;28;20494;-77
2022/05/22 00:52:42;;;;;;;10.30;4.32;;;;;;;21.24;51.54;94693.81;4958823;28;20034;-77
2022/05/22 00:55:15;;;;;;;8.30;4.43;;;;;;;21.19;51.78;94691.28;4974719;28;20037;-77
2022/05/22 00:57:44;;;;;;;11.90;4.15;;;;;;;21.15;51.60;94689.50;4974393;28;20113;-76
2022/05/22 01:00:17;;;;;;;5.07;4.53;;;;;;;21.14;51.79;94687.94;4974982;28;20532;-77
2022/05/22 01:05:27;;;;;;;11.00;5.20;;;;;;;21.10;51.94;94694.94;4977608;28;20037;-77
2022/05/22 01:07:52;;;;;;;8.50;4.57;;;;;;;21.08;52.16;94694.47;4974762;28;20030;-77
2022/05/22 01:10:19;;;;;;;8.75;4.80;;;;;;;21.09;52.02;94693.38;4992382;28;20501;-77
2022/05/22 01:12:44;;;;;;;11.25;4.63;;;;;;;21.13;51.94;94696.97;4974601;28;20049;-77
2022/05/22 01:15:12;;;;;;;6.03;3.83;;;;;;;21.12;52.01;94695.41;4992356;28;20510;-77
2022/05/22 01:17:41;;;;;;;8.05;4.10;;;;;;;21.11;51.86;94688.56;4973769;28;20030;-77
2022/05/22 01:20:07;;;;;;;6.22;4.32;;;;;;;21.12;51.85;94690.13;4957602;28;20027;-77
2022/05/22 01:22:33;;;;;;;4.65;4.18;;;;;;;21.09;51.52;94686.22;4990636;28;20363;-77
2022/05/22 01:24:58;;;;;;;9.35;4.38;;;;;;;21.09;51.59;94691.50;4957947;28;20034;-76
2022/05/22 01:27:24;;;;;;;8.93;5.85;;;;;;;21.08;51.31;94674.09;4991674;28;20033;-77
2022/05/22 01:29:49;;;;;;;5.10;4.45;;;;;;;21.06;51.19;94686.03;4958292;28;20042;-77
2022/05/22 01:32:14;;;;;;;5.75;3.97;;;;;;;21.05;50.84;94673.91;4974123;28;20037;-76
2022/05/22 01:34:40;;;;;;;6.35;3.75;;;;;;;21.04;50.63;94677.63;4974622;28;20049;-76
2022/05/22 01:37:05;;;;;;;8.52;3.90;;;;;;;21.06;50.38;94684.19;4958126;28;20030;-77
2022/05/22 01:39:31;;;;;;;13.07;4.15;;;;;;;21.05;50.16;94679.97;4973873;28;20034;-77
2022/05/22 01:41:56;;;;;;;10.27;4.22;;;;;;;21.05;50.31;94681.84;4958086;28;20030;-77
2022/05/22 01:44:22;;;;;;;3.65;3.33;;;;;;;21.03;49.24;94691.94;4974395;28;20049;-77
2022/05/22 01:46:47;;;;;;;4.05;3.65;;;;;;;21.03;48.98;94686.66;4974316;28;20034;-77
2022/05/22 01:49:13;;;;;;;8.98;4.07;;;;;;;21.03;48.75;94686.66;4974076;28;20043;-77
2022/05/22 01:51:40;;;;;;;7.80;3.45;;;;;;;21.03;48.90;94684.00;4974263;28;20026;-77
2022/05/22 01:54:05;;;;;;;7.90;3.40;;;;;;;21.03;48.36;94689.28;4941914;28;20046;-76
2022/05/22 01:56:31;;;;;;;6.57;3.13;;;;;;;21.04;48.27;94688.22;4957843;28;20033;-77
2022/05/22 01:58:56;;;;;;;6.30;3.78;;;;;;;21.04;47.80;94693.50;4972863;28;20034;-76
2022/05/22 02:01:22;;;;;;;7.90;3.17;;;;;;;21.06;47.77;94691.34;4973766;28;20042;-77
2022/05/22 02:03:47;;;;;;;4.05;3.28;;;;;;;21.03;46.62;94686.66;4957688;28;20548;-77
2022/05/22 02:06:13;;;;;;;8.63;3.53;;;;;;;20.98;45.99;94688.31;4973679;28;20038;-77
2022/05/22 02:08:39;;;;;;;12.63;3.35;;;;;;;20.98;45.61;94687.53;4973965;28;20065;-77
2022/05/22 02:11:05;;;;;;;4.35;2.90;;;;;;;21.00;44.98;94688.03;4957412;28;20046;-77
2022/05/22 02:13:43;;;;;;;8.40;3.17;;;;;;;20.97;43.88;94689.41;4991260;28;20034;-78
2022/05/22 02:16:08;;;;;;;3.40;2.92;;;;;;;20.95;43.52;94696.84;4958370;28;20110;-77
2022/05/22 02:18:34;;;;;;;4.28;2.88;;;;;;;20.95;43.09;94696.06;4957810;28;20042;-78
2022/05/22 02:20:59;;;;;;;6.13;2.92;;;;;;;20.92;42.41;94697.44;4957492;28;20034;-76
2022/05/22 02:23:25;;;;;;;8.30;2.53;;;;;;;20.93;41.77;94704.28;4981689;28;20032;-76
2022/05/22 02:25:52;;;;;;;2.90;2.65;;;;;;;20.92;41.55;94696.66;4987988;28;20045;-76
2022/05/22 02:28:18;;;;;;;5.88;3.15;;;;;;;20.93;41.66;94698.22;4973944;28;20030;-77
2022/05/22 02:30:52;;;;;;;5.68;2.80;;;;;;;20.89;40.84;94705.19;4973452;28;20096;-77
2022/05/22 02:33:17;;;;;;;6.35;2.40;;;;;;;20.84;40.64;94706.09;4941555;28;20038;-77
2022/05/22 02:35:43;;;;;;;2.30;2.10;;;;;;;20.83;40.95;94714.34;4957433;28;20038;-77
2022/05/22 02:38:10;;;;;;;6.15;2.67;;;;;;;20.82;40.66;94710.09;4990772;28;20038;-77
2022/05/22 02:40:35;;;;;;;2.63;2.42;;;;;;;20.82;40.61;94702.94;4973339;28;20030;-77
2022/05/22 02:43:01;;;;;;;6.65;2.53;;;;;;;20.82;40.39;94702.94;4973153;28;20040;-76
2022/05/22 02:45:29;;;;;;;4.28;2.75;;;;;;;20.84;39.89;94702.69;4990931;28;20456;-77
2022/05/22 02:47:55;;;;;;;3.50;2.33;;;;;;;20.86;39.17;94705.81;4964133;28;20034;-76
2022/05/22 02:50:22;;;;;;;8.43;2.40;;;;;;;20.87;39.30;94710.78;5002655;28;20030;-77
2022/05/22 02:52:48;;;;;;;7.82;2.08;;;;;;;20.89;39.22;94708.63;4977529;28;20057;-79
2022/05/22 02:55:13;;;;;;;9.57;2.72;;;;;;;20.90;39.52;94702.25;4960887;28;20093;-77
2022/05/22 02:57:40;;;;;;;5.25;2.30;;;;;;;20.91;39.61;94706.47;4944038;28;20085;-77
2022/05/22 03:00:19;;;;;;;14.48;2.72;;;;;;;20.91;39.91;94711.75;4949597;28;20487;-77
2022/05/22 03:02:45;;;;;;;4.47;2.38;;;;;;;20.90;39.62;94717.34;4988048;28;20121;-77
2022/05/22 03:05:10;;;;;;;11.55;2.65;;;;;;;20.90;39.57;94712.81;4973219;28;20402;-77
2022/05/22 03:07:36;;;;;;;10.73;2.35;;;;;;;20.86;39.07;94717.16;4990787;28;20049;-77
2022/05/22 03:10:03;;;;;;;9.43;2.60;;;;;;;20.85;38.83;94722.75;4972756;28;20041;-77
2022/05/22 03:12:29;;;;;;;8.13;2.08;;;;;;;20.83;38.85;94715.13;4989274;28;20474;-77
2022/05/22 03:14:55;;;;;;;4.25;2.33;;;;;;;20.85;38.60;94723.53;4973242;28;20041;-76
2022/05/22 03:17:21;;;;;;;6.13;2.28;;;;;;;20.81;38.49;94719.88;4972511;28;20049;-77
2022/05/22 03:19:46;;;;;;;8.25;2.60;;;;;;;20.75;38.60;94718.44;4956773;28;20030;-77
2022/05/22 03:22:15;;;;;;;12.40;2.38;;;;;;;20.77;38.34;94718.94;4956829;28;20026;-77
2022/05/22 03:24:40;;;;;;;10.70;2.53;;;;;;;20.80;37.88;94726.25;4956708;28;20045;-76
2022/05/22 03:27:10;;;;;;;4.40;2.50;;;;;;;20.80;37.62;94728.13;4989138;28;20034;-76
2022/05/22 03:29:35;;;;;;;8.70;2.42;;;;;;;20.81;37.03;94727.03;4971982;28;20243;-77
2022/05/22 03:32:01;;;;;;;2.50;2.25;;;;;;;20.83;37.03;94732.84;4990281;28;20498;-76
2022/05/22 03:34:26;;;;;;;14.52;2.53;;;;;;;20.88;36.73;94727.44;4972860;28;20482;-76
2022/05/22 03:36:52;;;;;;;5.53;2.17;;;;;;;20.90;36.66;94731.34;4956730;28;20030;-77
2022/05/22 03:39:17;;;;;;;17.60;2.33;;;;;;;20.96;36.71;94735.41;4972464;28;20042;-76
2022/05/22 03:41:43;;;;;;;3.50;2.40;;;;;;;21.03;35.79;94736.88;4972751;28;20030;-77
2022/05/22 03:44:08;;;;;;;8.55;3.17;;;;;;;21.08;35.39;94742.03;4972589;28;20049;-76
2022/05/22 03:46:34;;;;;;;24.10;7.95;;;;;;;21.14;35.10;94746.91;4989706;28;20034;-76
2022/05/22 03:48:59;;;;;;;13.00;4.75;;;;;;;21.23;34.95;94744.34;4956392;28;20508;-76
2022/05/22 03:51:25;;;;;;;3.72;2.40;;;;;;;21.28;34.06;94739.75;4972372;28;20410;-76
2022/05/22 03:53:50;;;;;;;9.55;5.18;;;;;;;21.35;33.95;94736.69;4989632;28;20038;-76
2022/05/22 03:56:17;;;;;;;13.52;4.07;;;;;;;21.42;33.39;94731.75;4989516;28;20585;-76
2022/05/22 03:58:43;;;;;;;9.10;3.80;;;;;;;21.48;33.27;94735.06;4972061;28;20034;-76
2022/05/22 04:01:08;;;;;;;8.10;3.22;;;;;;;21.58;33.25;94730.28;4955269;28;20080;-76
2022/05/22 04:03:34;;;;;;;4.95;2.83;;;;;;;21.74;32.99;94732.56;4948185;28;20478;-76
2022/05/22 04:06:01;;;;;;;9.07;3.08;;;;;;;22.19;32.32;94735.13;4956054;28;20038;-76
2022/05/22 04:08:30;;;;;;;4.97;2.40;;;;;;;22.55;31.76;94730.38;4972270;28;20115;-77
2022/05/22 04:10:56;;;;;;;3.33;2.50;;;;;;;23.80;29.44;94741.19;4971450;28;20101;-76
2022/05/22 04:13:22;;;;;;;2.28;1.95;;;;;;;24.42;28.78;94738.78;4948085;28;20133;-77
2022/05/22 04:15:47;;;;;;;3.30;1.70;;;;;;;25.40;27.33;94744.72;4971864;28;20027;-77
2022/05/22 04:18:13;;;;;;;4.55;2.40;;;;;;;25.54;26.91;94741.75;4972285;28;20057;-77
2022/05/22 04:20:38;;;;;;;3.40;1.98;;;;;;;25.28;27.48;94739.34;4989265;28;20034;-77
2022/05/22 04:25:55;;;;;;;7.90;1.90;;;;;;;24.62;27.92;94739.16;4977655;28;20076;-76
2022/05/22 04:28:21;;;;;;;6.75;1.90;;;;;;;24.35;28.21;94743.03;4942545;28;20485;-76
2022/05/22 04:30:47;;;;;;;5.57;1.80;;;;;;;24.12;28.49;94742.50;4991204;28;20057;-76
2022/05/22 04:33:12;;;;;;;2.00;1.67;;;;;;;23.90;28.40;94746.94;4975269;28;20486;-76
2022/05/22 04:35:38;;;;;;;11.38;1.63;;;;;;;23.70;29.19;94752.91;4975084;28;20053;-77
2022/05/22 04:38:03;;;;;;;3.83;1.70;;;;;;;23.54;29.14;94746.50;4992411;28;20042;-77
2022/05/22 04:40:29;;;;;;;6.35;1.83;;;;;;;23.39;30.13;94753.09;4958363;28;20039;-76
2022/05/22 04:42:54;;;;;;;2.10;1.58;;;;;;;23.29;29.57;94753.44;4974894;28;20030;-77
2022/05/22 04:45:20;;;;;;;5.00;1.67;;;;;;;23.16;29.84;94749.81;4975075;28;20113;-77
2022/05/22 04:47:45;;;;;;;3.50;1.70;;;;;;;23.08;30.38;94750.59;4992495;28;20041;-77
2022/05/22 04:50:12;;;;;;;1.98;1.50;;;;;;;22.98;30.54;94750.91;4958954;28;20030;-77
2022/05/22 04:52:37;;;;;;;3.42;1.88;;;;;;;22.98;30.62;94750.91;4992552;28;20386;-77
2022/05/22 04:55:03;;;;;;;3.78;2.05;;;;;;;22.98;30.92;94740.31;4975514;28;20038;-77
2022/05/22 04:57:29;;;;;;;1.90;1.80;;;;;;;23.06;31.86;94750.13;4977808;28;20491;-76
2022/05/22 04:59:54;;;;;;;7.15;2.53;;;;;;;23.15;31.81;94745.63;4997105;28;20053;-76
2022/05/22 05:02:22;;;;;;;4.18;2.05;;;;;;;23.34;32.09;94750.59;4993004;28;20026;-77
2022/05/22 05:04:47;;;;;;;6.38;2.50;;;;;;;23.45;31.89;94746.53;4974927;28;20092;-77
2022/05/22 05:07:15;;;;;;;11.68;2.63;;;;;;;23.46;31.81;94748.09;4991702;28;20034;-77
2022/05/22 05:09:41;;;;;;;18.02;2.33;;;;;;;23.54;31.56;94754.47;4956843;28;20034;-77
2022/05/22 05:12:07;;;;;;;6.20;2.50;;;;;;;23.65;31.51;94756.53;4992164;28;20510;-77
2022/05/22 05:14:32;;;;;;;17.30;2.70;;;;;;;23.73;31.95;94756.81;4991939;28;20047;-77
2022/05/22 05:16:57;;;;;;;7.60;2.67;;;;;;;23.72;31.42;94756.03;4990934;28;20462;-77
2022/05/22 05:19:23;;;;;;;18.45;2.58;;;;;;;23.70;31.84;94757.44;4992769;28;20027;-77
2022/05/22 05:21:48;;;;;;;7.13;2.22;;;;;;;23.67;31.92;94756.22;4999295;28;20041;-77
2022/05/22 05:24:14;;;;;;;6.07;2.05;;;;;;;23.62;31.68;94756.38;5000211;28;20053;-77
2022/05/22 05:26:39;;;;;;;6.22;1.90;;;;;;;23.50;31.73;94761.50;4993048;28;20034;-77
2022/05/22 05:29:05;;;;;;;8.65;2.42;;;;;;;23.46;31.74;94765.91;4974714;28;20042;-77
2022/05/22 05:31:30;;;;;;;5.28;2.35;;;;;;;23.41;32.03;94758.06;4958229;28;20046;-76
2022/05/22 05:33:56;;;;;;;10.73;2.40;;;;;;;23.35;32.94;94754.81;4973963;28;20030;-77
2022/05/22 05:36:21;;;;;;;10.07;2.42;;;;;;;23.32;32.92;94764.19;4957958;28;20100;-77
2022/05/22 05:38:47;;;;;;;4.35;1.80;;;;;;;23.26;32.88;94757.47;4942068;28;20034;-77
2022/05/22 05:41:12;;;;;;;9.23;2.15;;;;;;;23.22;32.06;94764.50;4991545;28;20038;-76
2022/05/22 05:43:37;;;;;;;6.53;1.90;;;;;;;23.22;31.46;94759.19;4991678;28;20042;-77
2022/05/22 05:46:09;;;;;;;8.57;1.95;;;;;;;23.25;31.60;94771.03;4973742;28;20113;-77
2022/05/22 05:48:35;;;;;;;;;;;;;;;23.24;31.49;94767.59;4991908;28;20398;-77
2022/05/22 05:51:01;;;;;;;4.65;1.73;;;;;;;23.20;31.18;94771.19;4991434;28;20864;-77
2022/05/22 05:53:27;;;;;;;6.40;2.63;;;;;;;23.17;31.01;94767.31;4990342;28;20491;-77
2022/05/22 05:55:52;;;;;;;8.90;2.92;;;;;;;23.16;31.89;94776.34;4990168;28;20042;-77
2022/05/22 05:58:17;;;;;;;9.85;3.15;;;;;;;23.13;32.45;94781.50;4991399;28;20026;-77
2022/05/22 06:00:43;;;;;;;3.05;1.85;;;;;;;23.12;31.75;94778.06;4955689;28;20030;-77
2022/05/22 06:03:09;;;;;;;5.70;2.85;;;;;;;23.11;31.79;94779.16;4991342;28;20034;-77
2022/05/22 06:05:34;;;;;;;8.43;2.83;;;;;;;23.13;32.21;94782.28;4973723;28;20034;-77
2022/05/22 06:08:00;;;;;;;6.95;1.77;;;;;;;23.12;31.92;94777.31;4973665;28;20030;-76
2022/05/22 06:10:25;;;;;;;4.90;1.90;;;;;;;23.08;31.59;94773.69;4991256;28;20034;-77
2022/05/22 06:12:50;;;;;;;4.55;2.03;;;;;;;23.07;32.09;94778.22;4973785;28;20449;-76
2022/05/22 06:15:16;;;;;;;15.07;2.25;;;;;;;23.08;32.39;94787.72;4990910;28;20336;-76
2022/05/22 06:17:43;;;;;;;3.70;1.50;;;;;;;23.08;32.30;94779.00;4943278;28;20057;-78
2022/05/22 06:20:09;;;;;;;5.75;2.00;;;;;;;23.05;32.36;94777.75;4974504;28;20100;-76
2022/05/22 06:22:35;;;;;;;7.40;1.80;;;;;;;22.99;32.79;94773.69;4973949;28;20505;-78
2022/05/22 06:25:06;;;;;;;4.45;2.38;;;;;;;22.98;32.60;94780.88;4957633;28;20034;-75
2022/05/22 06:27:31;;;;;;;3.97;1.83;;;;;;;22.95;32.58;94783.38;4990125;23;20050;-76
2022/05/22 06:29:57;;;;;;;6.43;2.15;;;;;;;22.91;32.97;94769.16;5000410;28;20039;-75
2022/05/22 06:32:22;;;;;;;10.55;2.53;;;;;;;22.93;32.93;94783.66;5000701;28;20030;-77
2022/05/22 06:34:48;;;;;;;5.55;2.30;;;;;;;22.91;32.57;94774.44;4999144;28;20391;-76
2022/05/22 06:37:16;;;;;;;3.90;1.70;;;;;;;22.95;32.40;94776.19;5007030;28;20100;-77
2022/05/22 06:39:54;;;;;;;8.38;1.92;;;;;;;23.04;32.33;94773.53;4983157;28;20030;-76
2022/05/22 06:42:19;;;;;;;3.50;1.85;;;;;;;23.27;32.12;94769.66;4969647;28;20026;-75
2022/05/22 06:44:50;;;;;;;5.63;1.73;;;;;;;23.64;32.05;94776.22;4999542;28;20048;-77
2022/05/22 06:47:15;;;;;;;7.03;2.05;;;;;;;24.05;31.62;94772.19;4982778;28;20036;-77
2022/05/22 06:49:44;;;;;;;3.55;1.30;;;;;;;24.30;31.37;94775.91;4983429;28;20409;-77
2022/05/22 06:52:09;;;;;;;4.10;1.92;;;;;;;24.48;31.19;94777.38;4998894;28;20098;-76
2022/05/22 06:54:35;;;;;;;5.90;1.90;;;;;;;24.71;31.71;94774.44;5023374;28;20077;-75
2022/05/22 06:57:00;;;;;;;15.13;2.17;;;;;;;24.91;31.83;94771.06;4999086;28;20303;-76
2022/05/22 06:59:26;;;;;;;11.73;1.73;;;;;;;25.31;30.88;94768.75;5023387;28;20505;-76
2022/05/22 07:01:51;;;;;;;2.63;1.55;;;;;;;25.75;30.62;94771.06;4988825;22;20033;-76
2022/05/22 07:04:20;;;;;;;3.28;1.42;;;;;;;26.24;29.40;94758.59;5018716;28;20500;-77
2022/05/22 07:06:45;;;;;;;5.82;1.52;;;;;;;26.41;29.04;94762.97;5023991;28;20029;-77
2022/05/22 07:09:11;;;;;;;8.88;2.00;;;;;;;26.41;29.43;94752.31;5030380;28;20400;-77
2022/05/22 07:11:39;;;;;;;4.20;1.77;;;;;;;26.45;29.82;94753.19;5030709;28;20095;-77
2022/05/22 07:14:08;;;;;;;12.57;1.95;;;;;;;26.56;29.64;94754.31;4997224;28;20049;-78
2022/05/22 07:16:37;;;;;;;7.03;1.95;;;;;;;26.57;29.79;94751.31;5021358;28;20033;-78
2022/05/22 07:19:04;;;;;;;4.10;1.55;;;;;;;26.53;30.18;94749.66;5021500;28;20025;-76
2022/05/22 07:21:29;;;;;;;2.75;1.63;;;;;;;26.37;30.39;94757.53;5005720;28;20089;-78
2022/05/22 07:23:55;;;;;;;9.23;2.10;;;;;;;26.14;30.44;94759.81;5038520;28;20026;-79
2022/05/22 07:26:21;;;;;;;4.35;1.60;;;;;;;26.10;30.71;94760.81;5037989;28;20378;-78
2022/05/22 07:28:47;;;;;;;15.15;2.75;;;;;;;26.13;30.56;94768.13;5038386;28;20566;-78
2022/05/22 07:31:23;;;;;;;3.83;3.17;;;;;;;26.16;30.73;94762.91;5037904;28;20489;-77
2022/05/22 07:33:49;;;;;;;7.72;2.72;;;;;;;26.30;29.90;94758.03;5034873;28;20033;-77
2022/05/22 07:36:14;;;;;;;3.55;1.38;;;;;;;26.46;29.32;94770.75;4994906;28;20037;-77
2022/05/22 07:38:40;;;;;;;5.70;1.50;;;;;;;26.47;29.18;94762.41;5028172;28;20053;-76
2022/05/22 07:41:05;;;;;;;3.78;1.50;;;;;;;26.61;29.70;94765.53;5027847;28;20119;-76
2022/05/22 07:43:31;;;;;;;10.93;1.88;;;;;;;26.81;29.40;94765.72;5029579;28;20497;-76
2022/05/22 07:45:56;;;;;;;7.75;2.10;;;;;;;27.20;29.26;94756.25;5029134;28;20029;-77
2022/05/22 07:48:22;;;;;;;7.00;1.98;;;;;;;27.60;29.18;94758.09;5027697;28;20033;-77
2022/05/22 07:50:54;;;;;;;13.93;2.30;;;;;;;27.74;28.17;94750.47;5029047;28;20044;-79
2022/05/22 07:53:19;;;;;;;9.32;2.20;;;;;;;27.77;28.80;94742.56;5000687;28;20037;-80
2022/05/22 07:55:45;;;;;;;13.57;2.00;;;;;;;27.49;28.75;94744.44;5033833;28;20421;-74
2022/05/22 07:58:10;;;;;;;6.70;1.80;;;;;;;27.28;29.40;94744.63;5036489;28;20045;-75
2022/05/22 08:00:36;;;;;;;9.88;1.90;;;;;;;27.03;29.82;94735.16;5029306;28;20041;-75
2022/05/22 08:03:10;;;;;;;11.45;2.45;;;;;;;26.78;30.16;94729.84;5028646;28;20048;-77
2022/05/22 08:05:35;;;;;;;10.13;2.35;;;;;;;26.64;30.05;94718.72;5029085;28;20087;-77
2022/05/22 08:08:01;;;;;;;12.15;1.88;;;;;;;26.39;29.35;94717.22;5028757;28;20506;-77
2022/05/22 08:10:26;;;;;;;10.82;1.70;;;;;;;25.92;29.70;94714.94;5029964;28;20481;-76
2022/05/22 08:12:52;;;;;;;4.05;2.50;;;;;;;25.65;30.46;94709.06;5029110;28;20064;-76
2022/05/22 08:15:19;;;;;;;3.67;2.45;;;;;;;25.35;30.92;94711.06;5030549;28;20029;-76
2022/05/22 08:17:46;;;;;;;5.63;2.22;;;;;;;25.10;31.66;94709.44;4997379;28;20527;-76
2022/05/22 08:20:16;;;;;;;4.63;2.67;;;;;;;24.80;32.28;94706.03;5029776;28;20057;-77
2022/05/22 08:22:45;;;;;;;5.47;2.22;;;;;;;24.67;33.13;94705.16;5005466;28;20025;-76
2022/05/22 08:25:17;;;;;;;6.82;2.40;;;;;;;24.64;32.98;94699.72;5030996;28;20045;-77
2022/05/22 08:27:43;;;;;;;17.25;2.88;;;;;;;24.73;33.57;94697.78;5007335;28;20512;-76
2022/05/22 08:30:10;;;;;;;5.38;2.15;;;;;;;24.90;32.91;94692.34;5028149;28;20037;-76
2022/05/22 08:32:37;;;;;;;12.82;2.90;;;;;;;24.94;33.30;94685.28;5006853;28;20045;-78
2022/05/22 08:35:03;;;;;;;12.45;2.72;;;;;;;25.13;33.81;94688.28;5032875;28;20037;-77
2022/05/22 08:37:28;;;;;;;5.85;2.72;;;;;;;25.21;33.86;94691.94;5034155;28;20033;-77
2022/05/22 08:39:53;;;;;;;8.25;2.30;;;;;;;25.31;33.62;94686.22;5032416;28;20107;-77
2022/05/22 08:42:22;;;;;;;9.73;2.30;;;;;;;25.36;33.71;94698.53;5029690;28;20025;-78
2022/05/22 08:44:49;;;;;;;4.13;2.20;;;;;;;25.36;34.50;94698.53;5029553;28;20601;-78
2022/05/22 08:47:31;;;;;;;13.63;2.42;;;;;;;25.34;34.23;94698.09;4998249;28;20039;-78
2022/05/22 08:50:10;;;;;;;;;;;;;;;25.22;34.33;94698.03;5006827;28;20445;-77
2022/05/22 08:53:01;;;;;;;11.07;3.60;;;;;;;24.99;34.83;94701.03;5030899;28;20000;-77
2022/05/22 08:58:57;;;;;;;6.55;1.98;;;;;;;24.57;35.63;94694.94;5030236;28;20044;-76
2022/05/22 09:02:02;;;;;;;4.10;2.40;;;;;;;24.34;36.05;94702.41;5028118;28;20049;-76
2022/05/22 09:04:44;;;;;;;2.70;2.10;;;;;;;24.16;35.87;94700.91;5026970;28;20521;-78
2022/05/22 09:07:23;;;;;;;3.25;2.00;;;;;;;24.05;35.92;94699.69;5009587;28;20105;-76
2022/05/22 09:09:56;;;;;;;5.85;2.20;;;;;;;23.93;36.61;94698.50;5012712;28;20025;-77
2022/05/22 09:12:40;;;;;;;14.35;2.72;;;;;;;23.87;36.48;94714.91;5013836;28;20068;-77
2022/05/22 09:15:14;;;;;;;5.20;2.05;;;;;;;23.82;35.36;94707.91;5030819;28;20064;-77
2022/05/22 09:17:55;;;;;;;5.25;2.42;;;;;;;23.87;36.00;94697.09;4991469;28;20038;-77
2022/05/22 09:20:28;;;;;;;4.35;2.22;;;;;;;24.01;35.80;94704.09;5003882;28;20495;-77
2022/05/22 09:23:01;;;;;;;16.30;3.38;;;;;;;24.09;35.60;94705.94;5008921;28;20025;-77
2022/05/22 09:25:33;;;;;;;22.33;8.40;;;;;;;24.16;36.04;94700.91;5025981;28;20176;-77
2022/05/22 09:28:31;;;;;;;13.93;7.10;;;;;;;24.29;36.01;94694.63;5029950;28;20033;-77
2022/05/22 09:31:06;;;;;;;3.30;3.00;;;;;;;24.45;35.92;94687.66;5008605;28;20045;-78
2022/05/22 09:33:40;;;;;;;7.85;3.40;;;;;;;24.67;36.44;94688.44;5030998;28;20242;-77
2022/05/22 09:36:31;;;;;;;10.48;2.42;;;;;;;24.85;35.53;94680.00;5019616;28;20996;-78
2022/05/22 09:39:19;;;;;;;10.82;2.50;;;;;;;24.99;35.04;94681.63;5027598;28;20021;-77
2022/05/22 09:42:18;;;;;;;14.60;2.70;;;;;;;25.12;35.19;94681.38;5026462;28;20092;-78
2022/05/22 09:44:49;;;;;;;5.40;1.90;;;;;;;25.27;34.24;94668.59;5007169;28;20056;-77
2022/05/22 09:47:32;;;;;;;2.95;1.77;;;;;;;25.35;33.57;94667.72;5027056;28;20061;-78
2022/05/22 09:50:20;;;;;;;17.05;1.90;;;;;;;25.54;34.05;94656.53;5029156;28;20506;-78
2022/05/22 09:53:05;;;;;;;10.63;1.65;;;;;;;25.49;32.89;94646.91;4997623;28;20084;-77
2022/05/22 09:55:44;;;;;;;4.93;1.63;;;;;;;25.59;32.70;94649.16;5004435;28;20079;-77
2022/05/22 09:58:32;;;;;;;4.78;1.67;;;;;;;25.66;33.09;94638.72;5005435;28;20057;-77
2022/05/22 10:01:04;;;;;;;2.80;1.52;;;;;;;25.78;33.11;94630.00;5030020;28;20516;-77
2022/05/22 10:03:48;;;;;;;2.60;1.63;;;;;;;25.81;32.98;94632.00;5030119;28;20061;-77
2022/05/22 10:06:26;;;;;;;5.72;1.75;;;;;;;26.09;32.70;94626.78;5032492;28;20034;-78
2022/05/22 10:09:27;;;;;;;3.78;1.77;;;;;;;26.30;32.45;94632.75;5030797;28;20060;-78
2022/05/22 10:12:13;;;;;;;7.78;1.92;;;;;;;26.34;30.48;94620.28;4962706;28;20027;-77
2022/05/22 10:14:48;;;;;;;4.60;1.45;;;;;;;26.37;30.71;94623.47;5006940;28;20045;-77
2022/05/22 10:17:26;;;;;;;4.97;1.67;;;;;;;26.44;31.08;94618.31;5030015;28;20030;-77
2022/05/22 10:20:29;;;;;;;4.93;1.55;;;;;;;26.58;30.82;94619.50;5029125;28;20185;-77
2022/05/22 10:23:12;;;;;;;3.80;1.67;;;;;;;26.70;30.42;94616.03;5023840;28;20083;-78
2022/05/22 10:26:13;;;;;;;14.68;2.15;;;;;;;26.87;30.23;94609.66;5029412;28;20033;-77
2022/05/22 10:29:03;;;;;;;17.70;3.92;;;;;;;26.96;29.58;94607.59;5011969;28;20038;-78
2022/05/22 10:31:34;;;;;;;6.57;1.80;;;;;;;27.06;29.77;94614.38;5036797;28;20053;-78
2022/05/22 10:34:01;;;;;;;9.25;1.80;;;;;;;27.05;29.63;94607.50;5031998;28;20037;-77
2022/05/22 10:36:38;;;;;;;9.00;1.60;;;;;;;27.00;30.34;94608.50;5028897;28;20109;-78
2022/05/22 10:39:09;;;;;;;3.33;1.75;;;;;;;26.94;30.55;94593.81;5004677;28;20043;-78
2022/05/22 10:44:29;;;;;;;6.78;1.65;;;;;;;26.90;30.76;94599.06;5029365;28;20129;-79
2022/05/22 10:46:57;;;;;;;19.73;2.45;;;;;;;26.85;30.12;94601.97;5012378;28;20405;-77
2022/05/22 10:49:24;;;;;;;16.02;2.30;;;;;;;26.90;30.45;94604.41;5028724;28;20042;-77
2022/05/22 10:52:00;;;;;;;7.35;4.15;;;;;;;26.86;30.46;94592.88;5027826;28;20037;-77
2022/05/22 10:54:30;;;;;;;3.85;1.95;;;;;;;26.82;30.08;94591.97;5020478;28;20035;-77
2022/05/22 10:57:17;;;;;;;13.00;2.05;;;;;;;26.67;30.47;94591.91;5027893;28;20176;-77
2022/05/22 10:59:43;;;;;;;10.52;1.83;;;;;;;26.49;31.24;94588.75;5025459;28;20040;-76
2022/05/22 11:02:20;;;;;;;6.18;1.70;;;;;;;26.34;29.59;94582.97;5084505;23;20139;-76
2022/05/22 11:04:47;;;;;;;11.48;1.60;;;;;;;26.27;30.78;94593.44;5040553;28;20032;-77
2022/05/22 11:10:08;;;;;;;4.32;2.00;;;;;;;26.55;32.17;94590.09;5021023;22;20050;-77
2022/05/22 11:12:39;;;;;;;4.00;1.73;;;;;;;26.47;31.86;94596.31;5023063;23;20132;-77
2022/05/22 11:15:10;;;;;;;8.98;1.83;;;;;;;26.31;32.37;94591.66;5020134;28;20585;-77
2022/05/22 11:17:36;;;;;;;2.65;1.90;;;;;;;26.26;33.39;94589.22;5043252;28;20042;-77
2022/05/22 11:20:16;;;;;;;28.42;2.08;;;;;;;26.36;33.78;94589.88;5001689;28;20045;-77
2022/05/22 11:22:58;;;;;;;4.93;1.80;;;;;;;26.47;33.00;94581.09;5034244;28;20033;-77
2022/05/22 11:25:29;;;;;;;6.68;1.60;;;;;;;26.50;32.32;94568.97;5025828;28;20029;-77
2022/05/22 11:28:18;;;;;;;4.93;1.80;;;;;;;26.43;32.61;94580.22;5017383;28;20042;-77
2022/05/22 11:30:50;;;;;;;6.78;2.00;;;;;;;26.42;33.25;94569.91;5019179;28;20033;-77
2022/05/22 11:33:19;;;;;;;;;;;;;;;26.48;34.01;94565.88;5043341;28;20049;-77
2022/05/22 11:36:08;;;;;;;1.60;1.50;;;;;;;26.45;33.49;94561.22;5019339;28;19920;-77
2022/05/22 11:38:50;;;;;;;3.22;1.90;;;;;;;26.47;32.89;94557.09;5005075;28;20045;-77
2022/05/22 11:41:48;;;;;;;2.95;1.77;;;;;;;26.47;33.25;94556.31;5013571;28;20119;-85
2022/05/22 11:44:46;;;;;;;2.40;2.20;;;;;;;26.50;32.80;94552.97;5048239;28;20042;-85
2022/05/22 11:47:26;;;;;;;4.25;2.95;;;;;;;26.45;32.98;94561.22;5021629;28;20486;-78
2022/05/22 11:50:01;;;;;;;4.45;2.30;;;;;;;26.41;33.66;94555.00;5267282;22;20116;-78
2022/05/22 11:52:54;;;;;;;5.25;1.80;;;;;;;26.32;32.10;94561.22;5056530;22;20039;-78
2022/05/22 11:55:19;;;;;;;4.88;1.92;;;;;;;26.03;32.49;94554.28;5117890;23;20481;-77
2022/05/22 11:57:56;;;;;;;4.82;1.90;;;;;;;25.98;32.52;94561.72;5027913;28;20160;-77